CheckWX is a tool to help pilots better visualize weather data.  It is not intended as a substitute for an official pre-flight weather briefing.

12:52:00 UTC

CYHY METAR
Hay River / Merlyn Carter Airport
Hay River, Canada
Current

52 mins ago

CYHY 261200Z 29007KT 15SM -RA OVC008 01/01 A2984 RMK SC8 SLP117
Observed
Mar-26 @ 12:00 UTC
Wind
  • 290° at 7 KTS
Visibility
15 SM
Flight Rules
IFR
Conditions
Light Rain
Cloud Levels
  • Overcast at 800' AGL
Temperature
C / 34°F
Dewpoint
C / 34°F
Humidity
100%
Altimeter
29.84" Hg
Pressure
1011.7 hPa
Previous

2 hours ago

CYHY 261100Z 28008KT 15SM -RA OVC018 01/00 A2984 RMK SC8 SLP117
Observed
Mar-26 @ 11:00 UTC
Wind
  • 280° at 8 KTS
Visibility
15 SM
Flight Rules
MVFR
Conditions
Light Rain
Cloud Levels
  • Overcast at 1,800' AGL
Temperature
C / 34°F
Dewpoint
C / 32°F
Humidity
93%
Altimeter
29.84" Hg
Pressure
1011.7 hPa
Previous

3 hours ago

CYHY 261000Z 30008KT 15SM -RA BKN026 01/01 A2984 RMK SC6 SLP115
Observed
Mar-26 @ 10:00 UTC
Wind
  • 300° at 8 KTS
Visibility
15 SM
Flight Rules
MVFR
Conditions
Light Rain
Cloud Levels
  • Broken at 2,600' AGL
Temperature
C / 34°F
Dewpoint
C / 34°F
Humidity
100%
Altimeter
29.84" Hg
Pressure
1011.5 hPa